Time;durP1;ratioP1;P1;durP2;ratioP2;P2;SDS_P1;SDS_P2;PMS_P1;PMS_P2;Temp;Humidity;BMP_temperature;BMP_pressure;BME280_temperature;BME280_humidity;BME280_pressure;Samples;Min_cycle;Max_cycle;Signal;HPM_P1;HPM_P2
2021/06/03 00:26:18;;;;;;;12.93;9.30;;;307.50;2304.00;;;;;;4953575;28;20450;-87
2021/06/03 00:29:11;;;;;;;14.38;9.02;;;307.30;2304.00;;;;;;4916267;28;20035;-86
2021/06/03 05:37:56;;;;;;;8.95;7.07;;;332.90;2329.60;;;;;;4996374;28;20029;-85
2021/06/03 05:40:45;;;;;;;10.48;6.88;;;333.00;2329.60;;;;;;4968722;28;20038;-85
2021/06/03 05:50:43;;;;;;;10.50;5.97;;;333.50;2329.60;;;;;;4917087;29;20150;-85
2021/06/03 05:53:13;;;;;;;12.15;5.60;;;333.70;2329.60;;;;;;4915454;29;20087;-84
2021/06/03 05:55:45;;;;;;;8.20;5.47;;;358.50;2329.60;;;;;;4951946;28;20491;-85
2021/06/03 05:58:37;;;;;;;8.40;5.72;;;358.60;2329.60;;;;;;4978627;28;20482;-86
2021/06/03 06:01:03;;;;;;;8.40;5.57;;;358.70;2329.60;;;;;;4965454;28;20034;-86
2021/06/03 06:06:25;;;;;;;8.68;5.70;;;358.80;2329.60;;;;;;4958118;28;20482;-86
2021/06/03 06:08:59;;;;;;;7.38;5.22;;;358.90;2329.60;;;;;;4977729;28;20062;-85
2021/06/03 06:11:30;;;;;;;8.60;6.10;;;359.00;2329.60;;;;;;4978163;28;20026;-85
2021/06/03 06:13:58;;;;;;;8.40;5.63;;;359.00;2329.60;;;;;;4978060;28;20038;-86
2021/06/03 06:16:24;;;;;;;9.50;4.95;;;359.20;2329.60;;;;;;4977539;28;20425;-86
2021/06/03 06:18:50;;;;;;;9.20;5.60;;;359.30;2329.60;;;;;;4976986;28;20030;-86
2021/06/03 06:21:25;;;;;;;9.00;5.32;;;384.10;2329.60;;;;;;4994685;28;20054;-86
2021/06/03 06:23:52;;;;;;;13.82;6.57;;;384.20;2329.60;;;;;;4961873;28;20128;-85
2021/06/03 06:26:19;;;;;;;11.35;6.00;;;384.30;2329.60;;;;;;4977629;28;20029;-86
2021/06/03 06:28:45;;;;;;;8.07;5.25;;;384.30;2329.60;;;;;;4977520;28;20031;-86
2021/06/03 06:31:13;;;;;;;11.15;6.15;;;384.50;2329.60;;;;;;4977551;28;20447;-88
2021/06/03 06:33:39;;;;;;;13.07;6.25;;;384.50;2329.60;;;;;;4977686;28;20047;-86
2021/06/03 06:36:06;;;;;;;10.70;6.38;;;384.80;2329.60;;;;;;4977607;28;20019;-88
2021/06/03 06:38:32;;;;;;;8.02;5.50;;;384.90;2329.60;;;;;;4977558;28;20038;-85
2021/06/03 06:40:58;;;;;;;10.60;6.00;;;409.70;2355.20;;;;;;4977895;28;20065;-85
2021/06/03 06:43:25;;;;;;;11.95;5.88;;;409.90;2355.20;;;;;;4977531;28;20460;-84
2021/06/03 06:45:51;;;;;;;14.50;5.97;;;410.10;2355.20;;;;;;4977732;28;20036;-84
2021/06/03 06:48:18;;;;;;;10.02;5.38;;;410.30;2355.20;;;;;;4977720;28;20072;-84
2021/06/03 06:50:46;;;;;;;11.70;5.60;;;410.30;2355.20;;;;;;4995427;28;20041;-85
2021/06/03 06:53:13;;;;;;;12.57;5.53;;;435.20;2355.20;;;;;;4977874;28;20067;-84
2021/06/03 06:55:40;;;;;;;9.60;5.78;;;435.50;2355.20;;;;;;4977965;28;20062;-84
2021/06/03 06:58:06;;;;;;;10.25;5.35;;;435.50;2355.20;;;;;;4978392;28;20053;-84
2021/06/03 07:00:38;;;;;;;11.70;4.82;;;435.40;2355.20;;;;;;4978859;28;20471;-84
2021/06/03 07:03:07;;;;;;;10.10;4.63;;;435.60;2355.20;;;;;;4978693;28;20026;-84
2021/06/03 07:05:33;;;;;;;7.35;4.97;;;435.50;2355.20;;;;;;4981155;28;20033;-85
2021/06/03 07:07:59;;;;;;;9.95;4.90;;;435.90;2355.20;;;;;;4978698;28;20027;-83
2021/06/03 07:10:25;;;;;;;12.18;4.90;;;436.10;2355.20;;;;;;4978996;28;20034;-84
2021/06/03 07:12:52;;;;;;;8.15;4.40;;;460.80;2380.80;;;;;;4998050;28;20037;-84
2021/06/03 07:15:19;;;;;;;8.32;3.90;;;460.90;2380.80;;;;;;4979775;28;20113;-84
2021/06/03 07:17:45;;;;;;;8.27;4.20;;;460.90;2380.80;;;;;;4979924;28;20023;-85
2021/06/03 07:20:14;;;;;;;7.20;4.15;;;461.00;2380.80;;;;;;4980382;28;20118;-83
2021/06/03 07:22:46;;;;;;;7.47;4.60;;;461.20;2380.80;;;;;;4980389;28;20100;-84
2021/06/03 07:25:14;;;;;;;7.70;5.05;;;461.40;2380.80;;;;;;4998222;28;20038;-83
2021/06/03 07:27:43;;;;;;;8.80;4.88;;;461.50;2380.80;;;;;;4981824;28;20437;-82
2021/06/03 07:30:12;;;;;;;6.35;4.40;;;461.70;2380.80;;;;;;4985541;28;20037;-80
2021/06/03 07:32:38;;;;;;;8.43;4.32;;;461.70;2380.80;;;;;;4983872;28;20053;-82
2021/06/03 07:35:09;;;;;;;10.15;4.13;;;486.60;2380.80;;;;;;5000726;28;20027;-81
2021/06/03 07:37:42;;;;;;;8.27;4.78;;;486.70;2355.20;;;;;;4984258;28;20108;-78
2021/06/03 07:40:12;;;;;;;10.43;4.60;;;486.70;2355.20;;;;;;4984070;28;20117;-75
2021/06/03 07:42:39;;;;;;;10.70;5.28;;;486.90;2252.80;;;;;;4980858;28;20161;-76
2021/06/03 07:45:07;;;;;;;6.97;4.32;;;487.10;2304.00;;;;;;4981365;28;20037;-76
2021/06/03 07:47:34;;;;;;;6.60;4.28;;;487.20;2227.20;;;;;;4981109;28;20026;-80
2021/06/03 07:50:00;;;;;;;7.68;4.70;;;486.70;2201.60;;;;;;4973780;28;20143;-77
2021/06/03 07:52:26;;;;;;;10.05;4.65;;;512.00;2150.40;;;;;;4960813;28;20151;-76
2021/06/03 07:54:51;;;;;;;7.38;5.05;;;512.20;2124.80;;;;;;4978650;28;20045;-76
2021/06/03 07:57:18;;;;;;;7.68;3.38;;;512.30;2099.20;;;;;;4961383;28;20117;-79
2021/06/03 07:59:44;;;;;;;7.72;3.58;;;512.40;2022.40;;;;;;4977133;28;20106;-77
2021/06/03 08:02:10;;;;;;;10.30;4.35;;;512.60;1996.80;;;;;;4976431;28;20110;-76
2021/06/03 08:04:36;;;;;;;26.13;8.45;;;512.30;2048.00;;;;;;4959894;28;20018;-78
2021/06/03 08:07:02;;;;;;;9.50;6.38;;;512.60;2073.60;;;;;;4977549;28;20416;-75
2021/06/03 08:09:28;;;;;;;11.93;5.97;;;512.70;1792.00;;;;;;4960095;28;20569;-76
2021/06/03 08:11:54;;;;;;;7.32;3.63;;;537.60;1843.20;;;;;;4960655;28;20094;-77
2021/06/03 08:14:20;;;;;;;6.97;3.45;;;512.80;1792.00;;;;;;4960335;28;20451;-75
2021/06/03 08:16:46;;;;;;;7.45;3.22;;;537.60;1766.40;;;;;;4977276;28;20023;-76
2021/06/03 08:19:12;;;;;;;10.32;3.30;;;512.90;1740.80;;;;;;4978119;28;20030;-76
2021/06/03 08:21:38;;;;;;;5.90;2.70;;;512.90;1638.40;;;;;;4957230;29;20451;-77
2021/06/03 08:24:05;;;;;;;6.28;2.70;;;537.60;1638.40;;;;;;4958515;29;20034;-77
2021/06/03 08:26:30;;;;;;;9.50;3.38;;;537.70;1612.80;;;;;;4958473;29;20079;-75
2021/06/03 08:28:57;;;;;;;8.35;2.95;;;537.70;1638.40;;;;;;4958185;29;20027;-76
2021/06/03 08:31:24;;;;;;;7.03;4.95;;;537.60;1612.80;;;;;;4957976;29;20046;-75
2021/06/03 08:33:50;;;;;;;6.10;2.88;;;538.00;1612.80;;;;;;4957897;29;20471;-75
2021/06/03 08:36:16;;;;;;;7.32;3.05;;;538.20;1536.00;;;;;;4940893;29;20038;-76
2021/06/03 08:38:42;;;;;;;6.07;2.80;;;538.00;1536.00;;;;;;4957008;29;20031;-79
2021/06/03 08:41:08;;;;;;;5.93;3.10;;;538.00;1510.40;;;;;;4939590;29;20114;-79
2021/06/03 08:43:34;;;;;;;6.03;2.67;;;538.20;1510.40;;;;;;4939803;29;20413;-79
2021/06/03 08:46:02;;;;;;;6.43;2.80;;;538.50;1510.40;;;;;;4940917;29;20360;-80
2021/06/03 08:48:28;;;;;;;5.85;2.85;;;563.20;1536.00;;;;;;4957795;29;20155;-79
2021/06/03 08:51:00;;;;;;;6.38;3.17;;;563.30;1510.40;;;;;;4940553;29;20395;-79
2021/06/03 08:53:27;;;;;;;;;;;563.40;1484.80;;;;;;4941420;29;20035;-78
2021/06/03 08:58:38;;;;;;;5.70;2.78;;;563.50;1459.20;;;;;;4958306;29;20183;-78
2021/06/03 09:01:05;;;;;;;4.90;2.70;;;563.50;1459.20;;;;;;4957701;29;20027;-78
2021/06/03 09:03:33;;;;;;;6.18;2.60;;;563.60;1484.80;;;;;;4957280;29;20031;-77
2021/06/03 09:05:59;;;;;;;4.88;2.80;;;563.80;1484.80;;;;;;4956459;29;20388;-78
2021/06/03 09:08:31;;;;;;;5.63;2.60;;;563.80;1433.60;;;;;;4940559;29;20027;-78
2021/06/03 09:10:59;;;;;;;8.85;3.08;;;564.00;1484.80;;;;;;4940231;29;20070;-78
2021/06/03 09:13:30;;;;;;;4.82;3.00;;;563.90;1484.80;;;;;;4957975;29;20031;-79
2021/06/03 09:16:09;;;;;;;11.43;4.13;;;564.00;1510.40;;;;;;4956458;29;20031;-78
2021/06/03 09:18:44;;;;;;;6.85;3.60;;;564.10;1536.00;;;;;;4940515;29;20027;-78
2021/06/03 09:21:22;;;;;;;8.02;2.83;;;564.10;1484.80;;;;;;4946943;28;20043;-78
2021/06/03 09:23:59;;;;;;;8.18;3.38;;;589.10;1510.40;;;;;;4959037;28;20085;-78
2021/06/03 09:26:26;;;;;;;5.75;3.58;;;589.30;1536.00;;;;;;4959487;28;20470;-78
2021/06/03 09:28:54;;;;;;;7.55;3.70;;;589.10;1484.80;;;;;;4959284;28;20027;-78
2021/06/03 09:31:26;;;;;;;7.45;3.45;;;588.90;1510.40;;;;;;4958545;28;20035;-78
2021/06/03 09:33:53;;;;;;;9.93;5.88;;;589.10;1484.80;;;;;;4976260;28;20031;-80
2021/06/03 09:36:24;;;;;;;7.82;2.78;;;589.30;1459.20;;;;;;4959018;28;20467;-81
2021/06/03 09:38:55;;;;;;;9.98;3.67;;;589.00;1433.60;;;;;;4974440;28;20027;-76
2021/06/03 09:41:22;;;;;;;10.48;4.13;;;588.90;1459.20;;;;;;4976615;28;20058;-79
2021/06/03 09:43:48;;;;;;;7.43;3.17;;;589.20;1459.20;;;;;;4958709;28;20034;-80
2021/06/03 09:46:16;;;;;;;10.68;4.32;;;564.10;1459.20;;;;;;4958030;28;20026;-80
2021/06/03 09:48:46;;;;;;;6.78;3.25;;;588.90;1510.40;;;;;;4959012;28;20543;-80
2021/06/03 09:51:27;;;;;;;5.20;3.00;;;564.10;1510.40;;;;;;4958531;28;20479;-79
2021/06/03 09:53:57;;;;;;;7.00;2.55;;;589.00;1510.40;;;;;;4974717;28;20066;-80
2021/06/03 09:56:36;;;;;;;5.18;2.72;;;588.90;1484.80;;;;;;4975962;28;20530;-78
2021/06/03 09:59:07;;;;;;;4.78;2.63;;;589.10;1459.20;;;;;;4958545;28;20078;-78
2021/06/03 10:01:50;;;;;;;5.60;3.00;;;564.10;1484.80;;;;;;4975831;28;20471;-80
2021/06/03 10:04:38;;;;;;;7.00;3.30;;;564.10;1510.40;;;;;;4958793;28;20379;-79
2021/06/03 10:07:32;;;;;;;6.18;2.88;;;589.10;1510.40;;;;;;4957625;28;20038;-79
2021/06/03 10:09:58;;;;;;;5.85;2.90;;;589.20;1459.20;;;;;;4972597;28;20501;-79
2021/06/03 10:12:23;;;;;;;6.63;2.97;;;588.90;1484.80;;;;;;4958272;28;20405;-79
2021/06/03 10:14:55;;;;;;;5.70;3.10;;;589.30;1433.60;;;;;;4958315;28;20031;-80
2021/06/03 10:17:31;;;;;;;6.93;3.00;;;589.50;1408.00;;;;;;4975973;28;20034;-80
2021/06/03 10:20:12;;;;;;;7.38;2.92;;;589.30;1408.00;;;;;;4958229;28;20037;-79
2021/06/03 10:22:42;;;;;;;4.95;2.60;;;589.30;1433.60;;;;;;4958264;28;20050;-80
2021/06/03 10:25:13;;;;;;;9.68;2.95;;;589.50;1408.00;;;;;;4974710;28;20074;-79
2021/06/03 10:27:48;;;;;;;6.88;3.50;;;589.70;1382.40;;;;;;4975500;28;20101;-80
2021/06/03 10:30:21;;;;;;;7.55;3.47;;;614.40;1382.40;;;;;;4974483;28;20391;-79
2021/06/03 10:32:49;;;;;;;6.20;2.92;;;614.40;1356.80;;;;;;4974323;28;20498;-79
2021/06/03 10:35:21;;;;;;;7.20;3.38;;;614.40;1382.40;;;;;;4975531;28;20061;-79
2021/06/03 10:37:47;;;;;;;6.45;3.28;;;614.60;1408.00;;;;;;4974213;28;20023;-80
2021/06/03 10:40:19;;;;;;;6.75;3.22;;;614.90;1433.60;;;;;;4973911;28;20062;-80
2021/06/03 10:42:46;;;;;;;6.57;3.20;;;640.20;1408.00;;;;;;4974375;28;20069;-79
2021/06/03 10:45:18;;;;;;;5.30;2.50;;;640.60;1331.20;;;;;;4974068;28;20030;-79
2021/06/03 10:47:44;;;;;;;8.68;2.80;;;640.80;1280.00;;;;;;4975136;28;20030;-79
2021/06/03 10:50:18;;;;;;;8.43;3.13;;;665.70;1331.20;;;;;;4973726;28;20031;-79
2021/06/03 10:52:44;;;;;;;5.78;2.65;;;665.90;1254.40;;;;;;4973832;28;20118;-79
2021/06/03 10:55:23;;;;;;;9.85;3.88;;;666.00;1254.40;;;;;;4974538;28;20023;-80
2021/06/03 10:58:03;;;;;;;7.13;2.47;;;666.40;1280.00;;;;;;4974901;28;20031;-80
2021/06/03 11:00:37;;;;;;;7.78;3.10;;;666.20;1203.20;;;;;;4974781;28;20031;-80
2021/06/03 11:03:14;;;;;;;8.57;3.20;;;691.30;1254.40;;;;;;4973427;28;20023;-80
2021/06/03 11:05:42;;;;;;;6.10;2.83;;;691.40;1280.00;;;;;;4973759;28;20030;-80
2021/06/03 11:08:23;;;;;;;7.38;2.70;;;691.20;1203.20;;;;;;4974657;28;20058;-81
2021/06/03 11:10:50;;;;;;;6.25;2.90;;;691.60;1254.40;;;;;;4957434;28;20049;-76
2021/06/03 11:13:18;;;;;;;5.15;2.80;;;666.30;1254.40;;;;;;4992980;28;20027;-80
2021/06/03 11:16:16;;;;;;;12.15;3.83;;;666.30;1280.00;;;;;;4994276;28;20053;-77
2021/06/03 11:18:48;;;;;;;6.85;3.00;;;666.30;1280.00;;;;;;4971283;28;20370;-77
2021/06/03 11:21:35;;;;;;;8.63;2.80;;;666.50;1228.80;;;;;;4984195;28;20486;-77
2021/06/03 11:24:08;;;;;;;11.20;3.42;;;691.30;1254.40;;;;;;4975471;28;20471;-77
2021/06/03 11:26:39;;;;;;;6.90;4.07;;;666.30;1228.80;;;;;;4976729;28;20026;-77
2021/06/03 11:29:12;;;;;;;10.23;4.90;;;666.10;1254.40;;;;;;4975980;28;20032;-76
2021/06/03 11:31:40;;;;;;;4.95;3.00;;;666.20;1228.80;;;;;;4976478;28;20384;-77
2021/06/03 11:34:13;;;;;;;4.18;2.80;;;666.30;1228.80;;;;;;4976266;28;20089;-76
2021/06/03 11:36:42;;;;;;;6.35;2.90;;;666.30;1254.40;;;;;;4993606;28;20023;-76
2021/06/03 11:39:33;;;;;;;5.03;2.78;;;691.30;1228.80;;;;;;4976624;28;20717;-76
2021/06/03 11:42:26;;;;;;;6.32;4.05;;;666.50;1254.40;;;;;;4976613;28;20038;-74
2021/06/03 11:45:32;;;;;;;5.97;3.03;;;691.20;1228.80;;;;;;4976375;28;20374;-77
2021/06/03 11:47:59;;;;;;;4.43;2.70;;;666.30;1177.60;;;;;;4963306;28;20042;-75
2021/06/03 11:50:35;;;;;;;8.20;3.63;;;665.60;1203.20;;;;;;4976020;28;20023;-76
2021/06/03 11:53:04;;;;;;;5.63;3.25;;;640.70;1203.20;;;;;;4976052;28;20057;-75
2021/06/03 11:55:40;;;;;;;6.65;2.78;;;640.70;1228.80;;;;;;4993762;28;20138;-74
2021/06/03 11:58:16;;;;;;;11.10;6.60;;;640.40;1228.80;;;;;;4993238;28;20522;-77
2021/06/03 12:00:52;;;;;;;14.63;9.20;;;640.00;1254.40;;;;;;4993255;28;20474;-78
2021/06/03 12:03:24;;;;;;;5.50;3.05;;;640.00;1280.00;;;;;;4976331;28;20027;-76
2021/06/03 12:05:54;;;;;;;5.88;2.70;;;615.00;1280.00;;;;;;4973507;28;20033;-78
2021/06/03 12:08:44;;;;;;;5.65;2.33;;;614.90;1331.20;;;;;;4975765;28;20027;-78
2021/06/03 12:11:44;;;;;;;6.85;3.00;;;615.30;1280.00;;;;;;4973664;28;20034;-78
2021/06/03 12:14:19;;;;;;;7.10;2.80;;;614.90;1305.60;;;;;;4976413;28;20434;-78
2021/06/03 12:16:46;;;;;;;8.20;3.15;;;614.80;1331.20;;;;;;4978457;28;20449;-75
2021/06/03 12:19:18;;;;;;;6.95;3.10;;;614.80;1331.20;;;;;;4979538;28;20033;-76
2021/06/03 12:21:50;;;;;;;5.65;3.10;;;614.70;1331.20;;;;;;4979503;28;20054;-77
2021/06/03 12:24:16;;;;;;;;;;;615.10;1331.20;;;;;;4980417;28;20384;-75
2021/06/03 12:26:42;;;;;;;6.57;2.85;;;615.30;1331.20;;;;;;4979501;28;20012;-76
2021/06/03 12:29:30;;;;;;;8.57;2.88;;;640.10;1305.60;;;;;;4979224;28;20026;-78
2021/06/03 12:31:56;;;;;;;4.90;2.60;;;665.80;1305.60;;;;;;4979638;28;20500;-76
2021/06/03 12:34:24;;;;;;;6.78;2.50;;;666.00;1228.80;;;;;;4996832;28;20038;-75
2021/06/03 12:36:52;;;;;;;4.72;2.28;;;640.60;1228.80;;;;;;4979540;28;20037;-78
2021/06/03 12:39:18;;;;;;;4.68;2.90;;;665.90;1254.40;;;;;;4979325;28;20121;-77
2021/06/03 12:41:45;;;;;;;10.95;2.90;;;665.70;1228.80;;;;;;4996926;28;20026;-77
2021/06/03 12:44:21;;;;;;;8.75;2.55;;;666.00;1254.40;;;;;;4997167;28;20042;-76
2021/06/03 12:46:55;;;;;;;5.50;2.83;;;640.60;1228.80;;;;;;4979105;28;20026;-78
2021/06/03 12:49:24;;;;;;;6.10;4.15;;;640.40;1280.00;;;;;;4997234;28;20023;-80
2021/06/03 12:52:05;;;;;;;8.48;2.55;;;640.50;1254.40;;;;;;4979367;28;20034;-80
2021/06/03 12:54:32;;;;;;;7.63;3.47;;;666.00;1254.40;;;;;;4979122;28;20422;-75
2021/06/03 12:57:00;;;;;;;7.13;4.40;;;666.00;1254.40;;;;;;4979101;28;20057;-79
2021/06/03 12:59:30;;;;;;;4.65;2.67;;;665.70;1254.40;;;;;;4979167;28;20079;-78
2021/06/03 13:02:01;;;;;;;7.90;3.20;;;640.90;1254.40;;;;;;4996397;28;20030;-75
2021/06/03 13:04:40;;;;;;;6.82;2.97;;;640.50;1280.00;;;;;;4996590;28;20037;-76
2021/06/03 13:07:09;;;;;;;10.05;3.47;;;640.50;1280.00;;;;;;4978510;28;20066;-75
2021/06/03 13:09:38;;;;;;;7.45;3.28;;;665.60;1305.60;;;;;;4978978;28;20120;-75
2021/06/03 13:12:11;;;;;;;6.15;2.40;;;665.60;1305.60;;;;;;4978814;28;20027;-77
2021/06/03 13:14:39;;;;;;;9.65;2.50;;;666.10;1280.00;;;;;;4996166;28;20374;-77
2021/06/03 13:17:09;;;;;;;6.47;2.60;;;666.00;1280.00;;;;;;4996095;28;20088;-77
2021/06/03 13:19:36;;;;;;;6.22;3.13;;;640.70;1228.80;;;;;;4978806;28;20027;-77
2021/06/03 13:22:03;;;;;;;6.43;2.53;;;640.40;1254.40;;;;;;4964640;28;20050;-76
2021/06/03 13:24:38;;;;;;;7.18;2.40;;;615.20;1280.00;;;;;;4976714;28;20027;-78
2021/06/03 13:27:13;;;;;;;4.68;2.58;;;615.00;1280.00;;;;;;4975984;28;20027;-76
2021/06/03 13:29:43;;;;;;;12.00;3.35;;;614.90;1305.60;;;;;;4976398;28;20103;-77
2021/06/03 13:32:10;;;;;;;4.88;2.92;;;614.90;1331.20;;;;;;4975332;28;20093;-76
2021/06/03 13:34:43;;;;;;;6.85;2.78;;;615.00;1356.80;;;;;;4976626;28;20494;-76
2021/06/03 13:37:14;;;;;;;7.07;3.00;;;615.10;1331.20;;;;;;4959096;28;20426;-76
2021/06/03 13:39:46;;;;;;;5.78;2.97;;;615.10;1305.60;;;;;;4975304;28;20030;-77
2021/06/03 13:42:18;;;;;;;7.57;2.70;;;615.10;1305.60;;;;;;4958613;28;20066;-77
2021/06/03 13:44:53;;;;;;;4.15;2.70;;;615.00;1305.60;;;;;;4959070;28;20035;-77
2021/06/03 13:47:39;;;;;;;8.13;2.78;;;614.80;1331.20;;;;;;4958909;28;20082;-76
2021/06/03 13:50:37;;;;;;;6.50;3.00;;;614.50;1356.80;;;;;;4974694;28;20105;-78
2021/06/03 13:53:28;;;;;;;9.60;4.18;;;614.80;1356.80;;;;;;4932485;28;20039;-77
2021/06/03 13:56:17;;;;;;;7.40;3.50;;;614.70;1331.20;;;;;;4958791;28;20030;-76
2021/06/03 13:59:03;;;;;;;6.05;2.67;;;614.60;1331.20;;;;;;4958665;28;20041;-76
2021/06/03 14:01:31;;;;;;;5.80;2.70;;;589.70;1356.80;;;;;;4958776;28;20046;-76
2021/06/03 14:04:03;;;;;;;8.10;3.22;;;589.70;1356.80;;;;;;4958411;28;20490;-77
2021/06/03 14:06:42;;;;;;;8.25;3.08;;;589.70;1356.80;;;;;;4975740;28;20037;-80
2021/06/03 14:09:17;;;;;;;8.32;3.03;;;614.50;1356.80;;;;;;4976187;28;20493;-79
2021/06/03 14:14:31;;;;;;;6.95;3.08;;;589.70;1382.40;;;;;;4976310;28;20034;-81
2021/06/03 14:17:08;;;;;;;7.00;2.70;;;589.60;1382.40;;;;;;4975227;28;20117;-80
2021/06/03 14:19:44;;;;;;;7.85;3.10;;;589.60;1382.40;;;;;;4958152;28;20026;-79
2021/06/03 14:22:29;;;;;;;5.28;2.97;;;614.40;1382.40;;;;;;4988831;28;20062;-79
2021/06/03 14:24:55;;;;;;;7.15;3.05;;;589.60;1356.80;;;;;;4977644;28;20375;-79
2021/06/03 14:28:05;;;;;;;8.15;2.97;;;589.30;1408.00;;;;;;4976543;28;20041;-80
2021/06/03 14:30:31;;;;;;;7.70;3.30;;;589.30;1408.00;;;;;;4964418;28;20045;-80
2021/06/03 14:33:04;;;;;;;10.00;3.22;;;589.20;1433.60;;;;;;4977159;28;20030;-80
2021/06/03 14:35:43;;;;;;;4.57;3.10;;;589.30;1408.00;;;;;;4977653;28;20425;-79
2021/06/03 14:38:12;;;;;;;7.43;3.45;;;614.40;1382.40;;;;;;4993976;28;20394;-77
2021/06/03 14:40:39;;;;;;;5.78;3.10;;;589.70;1408.00;;;;;;4977416;28;20367;-79
2021/06/03 14:43:08;;;;;;;7.65;3.67;;;589.50;1408.00;;;;;;4994573;28;20445;-79
2021/06/03 14:45:36;;;;;;;6.78;3.28;;;589.30;1408.00;;;;;;4977234;28;20023;-80
2021/06/03 14:48:03;;;;;;;6.55;3.20;;;589.20;1433.60;;;;;;4978031;28;20127;-79
2021/06/03 14:50:38;;;;;;;6.10;3.65;;;589.10;1433.60;;;;;;4977541;28;20037;-80
2021/06/03 14:53:05;;;;;;;8.57;3.67;;;589.00;1433.60;;;;;;4977510;28;20026;-79
2021/06/03 14:55:42;;;;;;;7.60;3.72;;;589.00;1433.60;;;;;;4993913;28;20030;-75
2021/06/03 14:58:09;;;;;;;11.77;4.07;;;589.10;1433.60;;;;;;4994792;28;20500;-75
2021/06/03 15:00:40;;;;;;;8.18;4.00;;;589.00;1433.60;;;;;;4977085;28;20379;-76
2021/06/03 15:03:06;;;;;;;7.28;3.05;;;589.50;1433.60;;;;;;4994631;28;20057;-75
2021/06/03 15:05:33;;;;;;;6.30;3.20;;;589.70;1408.00;;;;;;4993169;28;20418;-74
2021/06/03 15:08:02;;;;;;;6.13;3.05;;;614.40;1408.00;;;;;;4994623;28;20105;-75
2021/06/03 15:10:30;;;;;;;6.13;2.95;;;589.50;1382.40;;;;;;4977733;28;20474;-73
2021/06/03 15:13:00;;;;;;;8.63;3.65;;;589.60;1408.00;;;;;;4994817;28;20042;-74
2021/06/03 15:15:26;;;;;;;7.13;3.10;;;589.70;1408.00;;;;;;4977330;28;20455;-77
2021/06/03 15:17:53;;;;;;;7.40;3.40;;;589.30;1408.00;;;;;;4993035;28;20042;-77
2021/06/03 15:20:26;;;;;;;6.78;3.05;;;589.20;1408.00;;;;;;4993889;28;20088;-74
2021/06/03 15:22:52;;;;;;;13.82;4.20;;;589.30;1433.60;;;;;;4976807;28;20101;-75
2021/06/03 15:25:20;;;;;;;11.52;3.45;;;589.70;1408.00;;;;;;4976795;28;20049;-75
2021/06/03 15:27:47;;;;;;;9.38;3.00;;;589.70;1382.40;;;;;;4976430;28;20034;-74
2021/06/03 15:30:16;;;;;;;6.25;3.38;;;589.50;1408.00;;;;;;4994117;28;20057;-74
2021/06/03 15:32:45;;;;;;;6.88;2.85;;;589.20;1408.00;;;;;;4992806;28;20076;-74
2021/06/03 15:35:13;;;;;;;10.95;6.60;;;589.10;1408.00;;;;;;4976352;28;20177;-74
2021/06/03 15:37:40;;;;;;;9.73;4.43;;;589.30;1433.60;;;;;;4976696;28;20425;-77
2021/06/03 15:40:08;;;;;;;5.03;3.10;;;589.30;1408.00;;;;;;4993918;28;20030;-77
2021/06/03 15:42:34;;;;;;;5.93;3.47;;;589.20;1408.00;;;;;;4975913;28;20030;-74
2021/06/03 15:45:03;;;;;;;4.88;3.22;;;589.30;1408.00;;;;;;4976640;28;20084;-77
2021/06/03 15:47:29;;;;;;;5.38;3.65;;;589.20;1433.60;;;;;;4993948;28;20062;-75
2021/06/03 15:49:55;;;;;;;20.88;15.88;;;589.10;1433.60;;;;;;4977134;28;20058;-78
2021/06/03 15:52:21;;;;;;;8.63;4.88;;;589.00;1459.20;;;;;;4996720;28;20037;-75
2021/06/03 15:54:48;;;;;;;7.57;5.20;;;588.80;1433.60;;;;;;4994579;28;20494;-74
2021/06/03 15:57:14;;;;;;;8.43;5.45;;;564.10;1459.20;;;;;;4997252;28;20058;-75
2021/06/03 15:59:40;;;;;;;10.48;6.25;;;564.10;1484.80;;;;;;4997737;28;20078;-76
2021/06/03 16:02:09;;;;;;;11.23;5.97;;;564.10;1459.20;;;;;;4979934;28;20038;-76
2021/06/03 16:04:36;;;;;;;7.40;4.68;;;564.10;1484.80;;;;;;4997361;28;20026;-75
2021/06/03 16:07:02;;;;;;;6.47;4.00;;;564.10;1459.20;;;;;;4997684;28;20085;-78
2021/06/03 16:09:28;;;;;;;6.82;3.92;;;564.10;1459.20;;;;;;4979707;28;20074;-75
2021/06/03 16:11:54;;;;;;;10.32;5.55;;;588.80;1484.80;;;;;;4980122;28;20478;-76
2021/06/03 16:14:20;;;;;;;9.57;4.10;;;564.10;1484.80;;;;;;4979921;28;20041;-74
2021/06/03 16:16:46;;;;;;;10.43;5.22;;;564.10;1459.20;;;;;;4979691;28;20034;-75
2021/06/03 16:19:12;;;;;;;9.40;4.30;;;564.10;1484.80;;;;;;4979866;28;20026;-77
2021/06/03 16:21:37;;;;;;;8.13;4.68;;;564.10;1484.80;;;;;;4979322;28;20406;-75
2021/06/03 16:24:04;;;;;;;9.13;4.35;;;588.80;1459.20;;;;;;4979539;28;20026;-75
2021/06/03 16:26:30;;;;;;;9.25;4.72;;;588.80;1459.20;;;;;;4979807;28;20031;-75
2021/06/03 16:28:57;;;;;;;10.13;4.43;;;588.80;1459.20;;;;;;4997270;28;20076;-75
2021/06/03 16:31:24;;;;;;;7.80;3.75;;;588.80;1484.80;;;;;;4979362;28;20036;-74
2021/06/03 16:33:51;;;;;;;6.57;3.65;;;564.10;1459.20;;;;;;4979595;28;20034;-74
2021/06/03 16:36:17;;;;;;;5.15;3.35;;;564.10;1484.80;;;;;;4979563;28;20030;-76
2021/06/03 16:38:43;;;;;;;6.45;3.78;;;563.40;1484.80;;;;;;4979375;28;20057;-76
2021/06/03 16:41:11;;;;;;;7.97;4.47;;;564.00;1510.40;;;;;;4979453;28;20438;-76
2021/06/03 16:43:37;;;;;;;10.50;5.07;;;564.00;1510.40;;;;;;4995959;28;20066;-76
2021/06/03 16:46:04;;;;;;;10.23;4.95;;;564.00;1484.80;;;;;;4979098;28;20031;-76
2021/06/03 16:48:29;;;;;;;10.55;5.43;;;564.00;1510.40;;;;;;4996901;28;20030;-75
2021/06/03 16:50:58;;;;;;;9.73;4.60;;;563.90;1510.40;;;;;;4996796;28;20351;-76
2021/06/03 16:53:25;;;;;;;8.20;4.45;;;563.70;1510.40;;;;;;4996499;28;20489;-75
2021/06/03 16:55:54;;;;;;;8.63;5.32;;;563.70;1510.40;;;;;;4979168;28;20045;-76
2021/06/03 16:58:20;;;;;;;10.23;4.55;;;563.70;1510.40;;;;;;4978575;28;20581;-75
2021/06/03 17:00:51;;;;;;;11.63;8.43;;;563.60;1510.40;;;;;;4978899;28;20485;-74
2021/06/03 17:03:18;;;;;;;10.85;7.25;;;563.60;1510.40;;;;;;4976361;28;20030;-77
2021/06/03 17:05:44;;;;;;;9.02;5.28;;;563.60;1510.40;;;;;;4978005;28;20026;-73
2021/06/03 17:08:11;;;;;;;9.57;5.13;;;563.60;1536.00;;;;;;4978097;28;20027;-73
2021/06/03 17:10:40;;;;;;;12.30;4.55;;;563.60;1536.00;;;;;;4978061;28;20030;-74
2021/06/03 17:13:07;;;;;;;8.65;5.10;;;563.50;1536.00;;;;;;4995294;28;20041;-76
2021/06/03 17:15:33;;;;;;;6.70;4.15;;;563.40;1536.00;;;;;;4978019;28;20085;-75
2021/06/03 17:17:59;;;;;;;8.32;4.68;;;563.30;1536.00;;;;;;4995490;28;20033;-76
2021/06/03 17:20:34;;;;;;;9.02;4.97;;;563.20;1536.00;;;;;;4994965;28;20465;-75
2021/06/03 17:23:01;;;;;;;7.30;4.15;;;563.20;1561.60;;;;;;4977884;28;20117;-74
2021/06/03 17:25:28;;;;;;;7.75;4.47;;;538.50;1536.00;;;;;;4995570;28;20026;-75
2021/06/03 17:27:54;;;;;;;8.45;4.20;;;563.30;1587.20;;;;;;4977500;28;20042;-75
2021/06/03 17:30:26;;;;;;;16.85;6.32;;;538.40;1587.20;;;;;;4978054;28;20023;-75
2021/06/03 17:32:53;;;;;;;9.13;4.90;;;538.30;1587.20;;;;;;4977478;28;20545;-76
2021/06/03 17:35:22;;;;;;;10.55;5.10;;;538.30;1587.20;;;;;;4975218;28;20105;-73
2021/06/03 17:37:49;;;;;;;9.32;4.63;;;538.20;1612.80;;;;;;4995908;28;20022;-75
2021/06/03 17:40:16;;;;;;;11.32;5.70;;;538.10;1612.80;;;;;;4995636;28;20053;-74
2021/06/03 17:42:43;;;;;;;10.73;6.05;;;537.90;1689.60;;;;;;4995558;28;20386;-74
2021/06/03 17:45:13;;;;;;;11.93;7.40;;;537.70;1740.80;;;;;;4996091;28;20045;-75
2021/06/03 17:47:39;;;;;;;12.32;7.30;;;512.80;1740.80;;;;;;4978004;28;20034;-74
2021/06/03 17:50:07;;;;;;;11.13;6.18;;;512.70;1792.00;;;;;;4978069;28;20022;-75
2021/06/03 17:52:34;;;;;;;11.45;6.35;;;512.40;1766.40;;;;;;4978021;28;20030;-74
2021/06/03 17:55:00;;;;;;;10.07;5.82;;;512.30;1792.00;;;;;;4977865;28;20490;-78
2021/06/03 17:57:26;;;;;;;15.27;6.47;;;512.30;1766.40;;;;;;4978187;28;20069;-78
2021/06/03 17:59:52;;;;;;;29.65;20.73;;;512.00;1817.60;;;;;;4994132;28;20026;-75
2021/06/03 18:02:18;;;;;;;8.30;5.80;;;487.30;1817.60;;;;;;4977689;28;20034;-75
2021/06/03 18:04:44;;;;;;;7.30;5.40;;;487.20;1817.60;;;;;;4995352;28;20018;-73
2021/06/03 18:07:10;;;;;;;10.93;4.55;;;487.30;1817.60;;;;;;4992638;28;20038;-77
2021/06/03 18:09:36;;;;;;;6.68;4.55;;;487.10;1792.00;;;;;;4967683;28;20027;-76
2021/06/03 18:12:02;;;;;;;6.28;3.80;;;487.10;1766.40;;;;;;4984150;28;20064;-76
2021/06/03 18:14:28;;;;;;;9.10;4.03;;;487.20;1792.00;;;;;;4985913;28;20058;-75
2021/06/03 18:16:54;;;;;;;6.80;3.65;;;487.10;1817.60;;;;;;4976755;28;20444;-75
2021/06/03 18:19:20;;;;;;;7.75;3.78;;;487.10;1792.00;;;;;;4974554;28;20079;-75